sensor_id;sensor_type;location;lat;lon;timestamp;temperature;humidity
58413;DHT22;44209;52.952;6.790;2023-07-20T00:01:28;15.20;99.90
58413;DHT22;44209;52.952;6.790;2023-07-20T00:03:53;15.10;99.90
58413;DHT22;44209;52.952;6.790;2023-07-20T00:06:23;15.10;99.90
58413;DHT22;44209;52.952;6.790;2023-07-20T00:08:51;15.10;99.90
58413;DHT22;44209;52.952;6.790;2023-07-20T00:11:17;15.10;99.90
58413;DHT22;44209;52.952;6.790;2023-07-20T00:13:42;15.10;99.90
58413;DHT22;44209;52.952;6.790;2023-07-20T00:16:08;15.10;99.90
58413;DHT22;44209;52.952;6.790;2023-07-20T00:18:34;15.10;99.90
58413;DHT22;44209;52.952;6.790;2023-07-20T00:21:00;15.10;99.90
58413;DHT22;44209;52.952;6.790;2023-07-20T00:23:26;15.10;99.90
58413;DHT22;44209;52.952;6.790;2023-07-20T00:25:52;15.10;99.90
58413;DHT22;44209;52.952;6.790;2023-07-20T00:28:17;15.10;99.90
58413;DHT22;44209;52.952;6.790;2023-07-20T00:30:43;15.00;99.90
58413;DHT22;44209;52.952;6.790;2023-07-20T00:33:10;15.00;99.90
58413;DHT22;44209;52.952;6.790;2023-07-20T00:35:37;15.00;99.90
58413;DHT22;44209;52.952;6.790;2023-07-20T00:38:03;15.00;99.90
58413;DHT22;44209;52.952;6.790;2023-07-20T00:40:36;15.00;99.90
58413;DHT22;44209;52.952;6.790;2023-07-20T00:43:02;15.00;99.90
58413;DHT22;44209;52.952;6.790;2023-07-20T00:45:27;14.90;99.90
58413;DHT22;44209;52.952;6.790;2023-07-20T00:47:53;14.90;99.90
58413;DHT22;44209;52.952;6.790;2023-07-20T00:50:19;14.90;99.90
58413;DHT22;44209;52.952;6.790;2023-07-20T00:52:45;14.90;99.90
58413;DHT22;44209;52.952;6.790;2023-07-20T00:55:11;14.90;99.90
58413;DHT22;44209;52.952;6.790;2023-07-20T00:57:36;14.80;99.90
58413;DHT22;44209;52.952;6.790;2023-07-20T01:00:02;14.80;99.90
58413;DHT22;44209;52.952;6.790;2023-07-20T01:02:28;14.80;99.90
58413;DHT22;44209;52.952;6.790;2023-07-20T01:04:54;14.80;99.90
58413;DHT22;44209;52.952;6.790;2023-07-20T01:07:52;14.80;99.90
58413;DHT22;44209;52.952;6.790;2023-07-20T01:12:50;14.70;99.90
58413;DHT22;44209;52.952;6.790;2023-07-20T01:15:16;14.70;99.90
58413;DHT22;44209;52.952;6.790;2023-07-20T01:17:42;14.70;99.90
58413;DHT22;44209;52.952;6.790;2023-07-20T01:20:12;14.60;99.90
58413;DHT22;44209;52.952;6.790;2023-07-20T01:31:30;14.50;99.90
58413;DHT22;44209;52.952;6.790;2023-07-20T01:33:58;14.50;99.90
58413;DHT22;44209;52.952;6.790;2023-07-20T01:36:28;14.50;99.90
58413;DHT22;44209;52.952;6.790;2023-07-20T01:38:54;14.50;99.90
58413;DHT22;44209;52.952;6.790;2023-07-20T01:41:21;14.50;99.90
58413;DHT22;44209;52.952;6.790;2023-07-20T01:43:47;14.50;99.90
58413;DHT22;44209;52.952;6.790;2023-07-20T01:46:13;14.40;99.90
58413;DHT22;44209;52.952;6.790;2023-07-20T01:48:38;14.40;99.90
58413;DHT22;44209;52.952;6.790;2023-07-20T01:51:04;14.30;99.90
58413;DHT22;44209;52.952;6.790;2023-07-20T01:53:30;14.30;99.90
58413;DHT22;44209;52.952;6.790;2023-07-20T01:55:56;14.30;99.90
58413;DHT22;44209;52.952;6.790;2023-07-20T01:58:22;14.30;99.90
58413;DHT22;44209;52.952;6.790;2023-07-20T02:00:48;14.30;99.90
58413;DHT22;44209;52.952;6.790;2023-07-20T02:03:13;14.20;99.90
58413;DHT22;44209;52.952;6.790;2023-07-20T02:05:39;14.20;99.90
58413;DHT22;44209;52.952;6.790;2023-07-20T02:08:05;14.20;99.90
58413;DHT22;44209;52.952;6.790;2023-07-20T02:10:30;14.10;99.90
58413;DHT22;44209;52.952;6.790;2023-07-20T02:12:56;14.10;99.90
58413;DHT22;44209;52.952;6.790;2023-07-20T02:15:22;14.10;99.90
58413;DHT22;44209;52.952;6.790;2023-07-20T02:17:48;14.00;99.90
58413;DHT22;44209;52.952;6.790;2023-07-20T02:20:14;14.10;99.90
58413;DHT22;44209;52.952;6.790;2023-07-20T02:22:40;14.00;99.90
58413;DHT22;44209;52.952;6.790;2023-07-20T02:25:06;14.00;99.90
58413;DHT22;44209;52.952;6.790;2023-07-20T02:27:33;13.90;99.90
58413;DHT22;44209;52.952;6.790;2023-07-20T02:29:59;13.90;99.90
58413;DHT22;44209;52.952;6.790;2023-07-20T02:32:25;13.90;99.90
58413;DHT22;44209;52.952;6.790;2023-07-20T02:34:51;13.90;99.90
58413;DHT22;44209;52.952;6.790;2023-07-20T02:37:17;13.80;99.90
58413;DHT22;44209;52.952;6.790;2023-07-20T02:39:42;13.80;99.90
58413;DHT22;44209;52.952;6.790;2023-07-20T02:42:08;13.80;99.90
58413;DHT22;44209;52.952;6.790;2023-07-20T02:44:34;13.80;99.90
58413;DHT22;44209;52.952;6.790;2023-07-20T02:46:59;13.80;99.90
58413;DHT22;44209;52.952;6.790;2023-07-20T02:49:26;13.70;99.90
58413;DHT22;44209;52.952;6.790;2023-07-20T02:51:52;13.70;99.90
58413;DHT22;44209;52.952;6.790;2023-07-20T02:54:18;13.60;99.90
58413;DHT22;44209;52.952;6.790;2023-07-20T02:56:44;13.70;99.90
58413;DHT22;44209;52.952;6.790;2023-07-20T02:59:09;13.70;99.90
58413;DHT22;44209;52.952;6.790;2023-07-20T03:01:35;13.70;99.90
58413;DHT22;44209;52.952;6.790;2023-07-20T03:04:01;13.70;99.90
58413;DHT22;44209;52.952;6.790;2023-07-20T03:06:27;13.70;99.90
58413;DHT22;44209;52.952;6.790;2023-07-20T03:08:53;13.70;99.90
58413;DHT22;44209;52.952;6.790;2023-07-20T03:11:20;13.70;99.90
58413;DHT22;44209;52.952;6.790;2023-07-20T03:13:47;13.70;99.90
58413;DHT22;44209;52.952;6.790;2023-07-20T03:16:16;13.60;99.90
58413;DHT22;44209;52.952;6.790;2023-07-20T03:18:43;13.60;99.90
58413;DHT22;44209;52.952;6.790;2023-07-20T03:21:10;13.60;99.90
58413;DHT22;44209;52.952;6.790;2023-07-20T03:23:40;13.60;99.90
58413;DHT22;44209;52.952;6.790;2023-07-20T03:26:06;13.50;99.90
58413;DHT22;44209;52.952;6.790;2023-07-20T03:28:37;13.50;99.90
58413;DHT22;44209;52.952;6.790;2023-07-20T03:31:03;13.40;99.90
58413;DHT22;44209;52.952;6.790;2023-07-20T03:33:30;13.40;99.90
58413;DHT22;44209;52.952;6.790;2023-07-20T03:35:56;13.40;99.90
58413;DHT22;44209;52.952;6.790;2023-07-20T03:38:23;13.40;99.90
58413;DHT22;44209;52.952;6.790;2023-07-20T03:40:54;13.40;99.90
58413;DHT22;44209;52.952;6.790;2023-07-20T03:43:24;13.40;99.90
58413;DHT22;44209;52.952;6.790;2023-07-20T03:45:50;13.40;99.90
58413;DHT22;44209;52.952;6.790;2023-07-20T03:48:18;13.30;99.90
58413;DHT22;44209;52.952;6.790;2023-07-20T03:50:48;13.30;99.90
58413;DHT22;44209;52.952;6.790;2023-07-20T03:53:14;13.30;99.90
58413;DHT22;44209;52.952;6.790;2023-07-20T03:55:51;13.30;99.90
58413;DHT22;44209;52.952;6.790;2023-07-20T03:58:17;13.40;99.90
58413;DHT22;44209;52.952;6.790;2023-07-20T04:00:45;13.40;99.90
58413;DHT22;44209;52.952;6.790;2023-07-20T04:03:11;13.40;99.90
58413;DHT22;44209;52.952;6.790;2023-07-20T04:05:37;13.40;99.90
58413;DHT22;44209;52.952;6.790;2023-07-20T04:08:02;13.30;99.90
58413;DHT22;44209;52.952;6.790;2023-07-20T04:10:28;13.30;99.90
58413;DHT22;44209;52.952;6.790;2023-07-20T04:12:54;13.30;99.90
58413;DHT22;44209;52.952;6.790;2023-07-20T04:15:19;13.30;99.90
58413;DHT22;44209;52.952;6.790;2023-07-20T04:17:45;13.30;99.90
58413;DHT22;44209;52.952;6.790;2023-07-20T04:20:11;13.30;99.90
58413;DHT22;44209;52.952;6.790;2023-07-20T04:22:37;13.30;99.90
58413;DHT22;44209;52.952;6.790;2023-07-20T04:25:04;13.30;99.90
58413;DHT22;44209;52.952;6.790;2023-07-20T04:27:30;13.30;99.90
58413;DHT22;44209;52.952;6.790;2023-07-20T04:29:57;13.30;99.90
58413;DHT22;44209;52.952;6.790;2023-07-20T04:32:23;13.30;99.90
58413;DHT22;44209;52.952;6.790;2023-07-20T04:34:50;13.40;99.90
58413;DHT22;44209;52.952;6.790;2023-07-20T04:37:16;13.30;99.90
58413;DHT22;44209;52.952;6.790;2023-07-20T04:39:41;13.40;99.90
58413;DHT22;44209;52.952;6.790;2023-07-20T04:42:07;13.40;99.90
58413;DHT22;44209;52.952;6.790;2023-07-20T04:44:33;13.30;99.90
58413;DHT22;44209;52.952;6.790;2023-07-20T04:46:58;13.30;99.90
58413;DHT22;44209;52.952;6.790;2023-07-20T04:49:24;13.30;99.90
58413;DHT22;44209;52.952;6.790;2023-07-20T04:51:50;13.40;99.90
58413;DHT22;44209;52.952;6.790;2023-07-20T04:54:16;13.40;99.90
58413;DHT22;44209;52.952;6.790;2023-07-20T04:56:42;13.40;99.90
58413;DHT22;44209;52.952;6.790;2023-07-20T04:59:08;13.40;99.90
58413;DHT22;44209;52.952;6.790;2023-07-20T05:01:33;13.50;99.90
58413;DHT22;44209;52.952;6.790;2023-07-20T05:03:59;13.50;99.90
58413;DHT22;44209;52.952;6.790;2023-07-20T05:06:25;13.50;99.90
58413;DHT22;44209;52.952;6.790;2023-07-20T05:08:51;13.50;99.90
58413;DHT22;44209;52.952;6.790;2023-07-20T05:11:17;13.60;99.90
58413;DHT22;44209;52.952;6.790;2023-07-20T05:13:42;13.60;99.90
58413;DHT22;44209;52.952;6.790;2023-07-20T05:16:08;13.70;99.90
58413;DHT22;44209;52.952;6.790;2023-07-20T05:18:34;13.70;99.90
58413;DHT22;44209;52.952;6.790;2023-07-20T05:20:59;13.70;99.90
58413;DHT22;44209;52.952;6.790;2023-07-20T05:23:25;13.70;99.90
58413;DHT22;44209;52.952;6.790;2023-07-20T05:25:55;13.70;99.90
58413;DHT22;44209;52.952;6.790;2023-07-20T05:28:22;13.80;99.90
58413;DHT22;44209;52.952;6.790;2023-07-20T05:30:48;13.80;99.90
58413;DHT22;44209;52.952;6.790;2023-07-20T05:33:14;13.80;99.90
58413;DHT22;44209;52.952;6.790;2023-07-20T05:35:40;13.90;99.90
58413;DHT22;44209;52.952;6.790;2023-07-20T05:38:05;13.90;99.90
58413;DHT22;44209;52.952;6.790;2023-07-20T05:40:32;14.00;99.90
58413;DHT22;44209;52.952;6.790;2023-07-20T05:42:57;14.10;99.90
58413;DHT22;44209;52.952;6.790;2023-07-20T05:45:24;14.20;99.90
58413;DHT22;44209;52.952;6.790;2023-07-20T05:47:50;14.20;99.90
58413;DHT22;44209;52.952;6.790;2023-07-20T05:50:15;14.30;99.90
58413;DHT22;44209;52.952;6.790;2023-07-20T05:52:41;14.40;99.90
58413;DHT22;44209;52.952;6.790;2023-07-20T05:55:07;14.60;99.90
58413;DHT22;44209;52.952;6.790;2023-07-20T05:57:33;14.70;99.90
58413;DHT22;44209;52.952;6.790;2023-07-20T05:59:59;14.80;99.90
58413;DHT22;44209;52.952;6.790;2023-07-20T06:02:25;14.90;99.90
58413;DHT22;44209;52.952;6.790;2023-07-20T06:04:50;15.00;99.90
58413;DHT22;44209;52.952;6.790;2023-07-20T06:07:16;15.00;99.90
58413;DHT22;44209;52.952;6.790;2023-07-20T06:09:42;15.10;99.90
58413;DHT22;44209;52.952;6.790;2023-07-20T06:12:08;15.10;99.90
58413;DHT22;44209;52.952;6.790;2023-07-20T06:14:34;15.20;99.90
58413;DHT22;44209;52.952;6.790;2023-07-20T06:17:00;15.20;99.90
58413;DHT22;44209;52.952;6.790;2023-07-20T06:19:25;15.20;99.90
58413;DHT22;44209;52.952;6.790;2023-07-20T06:21:51;15.20;99.90
58413;DHT22;44209;52.952;6.790;2023-07-20T06:24:17;15.20;99.90
58413;DHT22;44209;52.952;6.790;2023-07-20T06:26:43;15.20;99.90
58413;DHT22;44209;52.952;6.790;2023-07-20T06:29:09;15.20;99.90
58413;DHT22;44209;52.952;6.790;2023-07-20T06:31:36;15.30;99.90
58413;DHT22;44209;52.952;6.790;2023-07-20T06:34:02;15.40;99.90
58413;DHT22;44209;52.952;6.790;2023-07-20T06:36:28;15.50;99.90
58413;DHT22;44209;52.952;6.790;2023-07-20T06:38:55;15.60;99.90
58413;DHT22;44209;52.952;6.790;2023-07-20T06:41:21;15.70;99.90
58413;DHT22;44209;52.952;6.790;2023-07-20T06:43:47;15.90;99.90
58413;DHT22;44209;52.952;6.790;2023-07-20T06:46:13;16.00;99.90
58413;DHT22;44209;52.952;6.790;2023-07-20T06:48:39;16.00;99.90
58413;DHT22;44209;52.952;6.790;2023-07-20T06:51:05;16.10;99.90
58413;DHT22;44209;52.952;6.790;2023-07-20T06:53:31;16.20;99.90
58413;DHT22;44209;52.952;6.790;2023-07-20T06:55:57;16.30;99.90
58413;DHT22;44209;52.952;6.790;2023-07-20T06:58:23;16.40;99.90
58413;DHT22;44209;52.952;6.790;2023-07-20T07:00:49;16.50;99.90
58413;DHT22;44209;52.952;6.790;2023-07-20T07:03:15;16.50;99.90
58413;DHT22;44209;52.952;6.790;2023-07-20T07:05:40;16.60;99.90
58413;DHT22;44209;52.952;6.790;2023-07-20T07:08:06;16.50;99.90
58413;DHT22;44209;52.952;6.790;2023-07-20T07:10:34;16.60;99.90
58413;DHT22;44209;52.952;6.790;2023-07-20T07:13:00;16.60;99.90
58413;DHT22;44209;52.952;6.790;2023-07-20T07:15:26;16.70;99.90
58413;DHT22;44209;52.952;6.790;2023-07-20T07:17:53;16.70;99.90
58413;DHT22;44209;52.952;6.790;2023-07-20T07:20:18;16.80;99.90
58413;DHT22;44209;52.952;6.790;2023-07-20T07:22:44;16.80;99.90
58413;DHT22;44209;52.952;6.790;2023-07-20T07:25:11;16.80;99.90
58413;DHT22;44209;52.952;6.790;2023-07-20T07:27:36;16.90;99.90
58413;DHT22;44209;52.952;6.790;2023-07-20T07:30:03;16.90;99.90
58413;DHT22;44209;52.952;6.790;2023-07-20T07:32:29;17.00;99.90
58413;DHT22;44209;52.952;6.790;2023-07-20T07:34:54;17.00;99.90
58413;DHT22;44209;52.952;6.790;2023-07-20T07:37:21;16.90;99.90
58413;DHT22;44209;52.952;6.790;2023-07-20T07:39:47;16.90;99.90
58413;DHT22;44209;52.952;6.790;2023-07-20T07:42:12;17.10;99.90
58413;DHT22;44209;52.952;6.790;2023-07-20T07:44:38;17.10;99.90
58413;DHT22;44209;52.952;6.790;2023-07-20T07:47:04;17.20;99.90
58413;DHT22;44209;52.952;6.790;2023-07-20T07:49:31;17.20;99.90
58413;DHT22;44209;52.952;6.790;2023-07-20T07:51:57;17.20;99.90
58413;DHT22;44209;52.952;6.790;2023-07-20T07:54:22;17.20;99.90
58413;DHT22;44209;52.952;6.790;2023-07-20T07:56:48;17.40;99.90
58413;DHT22;44209;52.952;6.790;2023-07-20T07:59:14;17.40;99.90
58413;DHT22;44209;52.952;6.790;2023-07-20T08:01:40;17.50;99.90
58413;DHT22;44209;52.952;6.790;2023-07-20T08:04:05;17.50;99.90
58413;DHT22;44209;52.952;6.790;2023-07-20T08:06:31;17.50;99.90
58413;DHT22;44209;52.952;6.790;2023-07-20T08:08:57;17.50;99.90
58413;DHT22;44209;52.952;6.790;2023-07-20T08:11:23;17.60;99.90
58413;DHT22;44209;52.952;6.790;2023-07-20T08:13:49;17.60;99.90
58413;DHT22;44209;52.952;6.790;2023-07-20T08:16:15;17.70;99.90
58413;DHT22;44209;52.952;6.790;2023-07-20T08:18:41;17.80;99.90
58413;DHT22;44209;52.952;6.790;2023-07-20T08:21:06;17.90;99.90
58413;DHT22;44209;52.952;6.790;2023-07-20T08:23:32;18.00;99.90
58413;DHT22;44209;52.952;6.790;2023-07-20T08:25:58;18.00;99.90
58413;DHT22;44209;52.952;6.790;2023-07-20T08:28:24;18.10;99.90
58413;DHT22;44209;52.952;6.790;2023-07-20T08:30:51;18.20;99.90
58413;DHT22;44209;52.952;6.790;2023-07-20T08:33:18;18.30;99.90
58413;DHT22;44209;52.952;6.790;2023-07-20T08:35:45;18.40;99.90
58413;DHT22;44209;52.952;6.790;2023-07-20T08:38:11;18.50;99.90
58413;DHT22;44209;52.952;6.790;2023-07-20T08:40:42;18.60;99.90
58413;DHT22;44209;52.952;6.790;2023-07-20T08:43:12;18.70;99.90
58413;DHT22;44209;52.952;6.790;2023-07-20T08:45:40;18.70;99.90
58413;DHT22;44209;52.952;6.790;2023-07-20T08:48:07;18.50;99.90
58413;DHT22;44209;52.952;6.790;2023-07-20T08:50:34;18.30;99.90
58413;DHT22;44209;52.952;6.790;2023-07-20T08:53:00;18.10;99.90
58413;DHT22;44209;52.952;6.790;2023-07-20T08:55:27;18.30;99.90
58413;DHT22;44209;52.952;6.790;2023-07-20T08:57:54;18.40;99.90
58413;DHT22;44209;52.952;6.790;2023-07-20T09:00:21;18.50;99.90
58413;DHT22;44209;52.952;6.790;2023-07-20T09:02:49;18.70;99.90
58413;DHT22;44209;52.952;6.790;2023-07-20T09:05:20;18.90;99.90
58413;DHT22;44209;52.952;6.790;2023-07-20T09:07:46;18.90;99.90
58413;DHT22;44209;52.952;6.790;2023-07-20T09:10:12;19.00;99.90
58413;DHT22;44209;52.952;6.790;2023-07-20T09:12:40;19.10;99.90
58413;DHT22;44209;52.952;6.790;2023-07-20T09:15:06;19.20;99.90
58413;DHT22;44209;52.952;6.790;2023-07-20T09:17:32;19.20;99.90
58413;DHT22;44209;52.952;6.790;2023-07-20T09:19:58;19.30;99.90
58413;DHT22;44209;52.952;6.790;2023-07-20T09:22:31;19.40;99.90
58413;DHT22;44209;52.952;6.790;2023-07-20T09:24:58;19.40;99.90
58413;DHT22;44209;52.952;6.790;2023-07-20T09:27:44;19.50;99.90
58413;DHT22;44209;52.952;6.790;2023-07-20T09:30:10;19.60;99.90
58413;DHT22;44209;52.952;6.790;2023-07-20T09:32:44;19.70;99.90
58413;DHT22;44209;52.952;6.790;2023-07-20T09:35:21;19.60;99.90
58413;DHT22;44209;52.952;6.790;2023-07-20T09:37:53;19.50;99.90
58413;DHT22;44209;52.952;6.790;2023-07-20T09:40:20;19.40;99.90
58413;DHT22;44209;52.952;6.790;2023-07-20T09:42:46;19.30;99.90
58413;DHT22;44209;52.952;6.790;2023-07-20T09:45:12;19.30;99.90
58413;DHT22;44209;52.952;6.790;2023-07-20T09:47:39;19.20;99.90
58413;DHT22;44209;52.952;6.790;2023-07-20T09:50:06;19.30;99.90
58413;DHT22;44209;52.952;6.790;2023-07-20T09:52:40;19.60;99.90
58413;DHT22;44209;52.952;6.790;2023-07-20T09:55:09;19.80;99.90
58413;DHT22;44209;52.952;6.790;2023-07-20T09:57:36;19.90;99.90
58413;DHT22;44209;52.952;6.790;2023-07-20T10:00:07;19.90;99.90
58413;DHT22;44209;52.952;6.790;2023-07-20T10:02:41;19.80;99.90
58413;DHT22;44209;52.952;6.790;2023-07-20T10:05:11;19.60;99.90
58413;DHT22;44209;52.952;6.790;2023-07-20T10:07:43;19.20;99.90
58413;DHT22;44209;52.952;6.790;2023-07-20T10:10:09;19.00;99.90
58413;DHT22;44209;52.952;6.790;2023-07-20T10:12:37;19.10;99.90
58413;DHT22;44209;52.952;6.790;2023-07-20T10:15:15;19.20;99.90
58413;DHT22;44209;52.952;6.790;2023-07-20T10:17:57;19.40;99.90
58413;DHT22;44209;52.952;6.790;2023-07-20T10:20:23;19.50;99.90
58413;DHT22;44209;52.952;6.790;2023-07-20T10:22:53;19.80;99.90
58413;DHT22;44209;52.952;6.790;2023-07-20T10:25:21;20.00;99.90
58413;DHT22;44209;52.952;6.790;2023-07-20T10:27:48;20.30;99.90
58413;DHT22;44209;52.952;6.790;2023-07-20T10:30:14;20.40;99.90
58413;DHT22;44209;52.952;6.790;2023-07-20T10:32:41;20.40;99.90
58413;DHT22;44209;52.952;6.790;2023-07-20T10:35:15;20.40;99.90
58413;DHT22;44209;52.952;6.790;2023-07-20T10:37:53;20.50;99.90
58413;DHT22;44209;52.952;6.790;2023-07-20T10:40:33;20.60;99.90
58413;DHT22;44209;52.952;6.790;2023-07-20T10:43:03;20.70;99.90
58413;DHT22;44209;52.952;6.790;2023-07-20T10:45:42;20.90;99.90
58413;DHT22;44209;52.952;6.790;2023-07-20T10:48:19;21.10;99.90
58413;DHT22;44209;52.952;6.790;2023-07-20T10:51:08;21.20;99.90
58413;DHT22;44209;52.952;6.790;2023-07-20T10:53:32;21.30;99.90
58413;DHT22;44209;52.952;6.790;2023-07-20T10:56:11;21.00;99.90
58413;DHT22;44209;52.952;6.790;2023-07-20T10:58:37;20.50;99.90
58413;DHT22;44209;52.952;6.790;2023-07-20T11:01:06;20.10;99.90
58413;DHT22;44209;52.952;6.790;2023-07-20T11:03:37;19.80;99.90
58413;DHT22;44209;52.952;6.790;2023-07-20T11:08:48;19.30;99.90
58413;DHT22;44209;52.952;6.790;2023-07-20T11:11:22;19.20;99.90
58413;DHT22;44209;52.952;6.790;2023-07-20T11:14:01;19.20;99.90
58413;DHT22;44209;52.952;6.790;2023-07-20T11:16:45;19.40;99.90
58413;DHT22;44209;52.952;6.790;2023-07-20T11:19:22;19.50;99.90
58413;DHT22;44209;52.952;6.790;2023-07-20T11:21:56;19.80;99.90
58413;DHT22;44209;52.952;6.790;2023-07-20T11:24:22;20.00;99.90
58413;DHT22;44209;52.952;6.790;2023-07-20T11:26:50;20.30;99.90
58413;DHT22;44209;52.952;6.790;2023-07-20T11:29:17;20.50;99.90
58413;DHT22;44209;52.952;6.790;2023-07-20T11:31:44;20.60;99.90
58413;DHT22;44209;52.952;6.790;2023-07-20T11:34:14;20.70;99.90
58413;DHT22;44209;52.952;6.790;2023-07-20T11:36:50;20.70;99.90
58413;DHT22;44209;52.952;6.790;2023-07-20T11:39:18;20.90;99.90
58413;DHT22;44209;52.952;6.790;2023-07-20T11:41:47;21.10;99.90
58413;DHT22;44209;52.952;6.790;2023-07-20T11:44:13;21.20;99.90
58413;DHT22;44209;52.952;6.790;2023-07-20T11:46:44;21.30;99.90
58413;DHT22;44209;52.952;6.790;2023-07-20T11:49:11;21.30;99.90
58413;DHT22;44209;52.952;6.790;2023-07-20T11:51:38;21.20;99.90
58413;DHT22;44209;52.952;6.790;2023-07-20T11:54:07;20.90;99.90
58413;DHT22;44209;52.952;6.790;2023-07-20T11:56:33;20.70;99.90
58413;DHT22;44209;52.952;6.790;2023-07-20T11:58:59;20.60;99.90
58413;DHT22;44209;52.952;6.790;2023-07-20T12:01:27;20.50;99.90
58413;DHT22;44209;52.952;6.790;2023-07-20T12:03:56;20.20;99.90
58413;DHT22;44209;52.952;6.790;2023-07-20T12:06:27;19.80;99.90
58413;DHT22;44209;52.952;6.790;2023-07-20T12:08:57;19.50;99.90
58413;DHT22;44209;52.952;6.790;2023-07-20T12:11:38;19.30;99.90
58413;DHT22;44209;52.952;6.790;2023-07-20T12:14:06;19.10;99.90
58413;DHT22;44209;52.952;6.790;2023-07-20T12:16:32;19.00;99.90
58413;DHT22;44209;52.952;6.790;2023-07-20T12:21:28;18.80;99.90
58413;DHT22;44209;52.952;6.790;2023-07-20T12:23:56;18.80;99.90
58413;DHT22;44209;52.952;6.790;2023-07-20T12:26:23;18.90;99.90
58413;DHT22;44209;52.952;6.790;2023-07-20T12:28:49;19.00;99.90
58413;DHT22;44209;52.952;6.790;2023-07-20T12:31:15;19.00;99.90
58413;DHT22;44209;52.952;6.790;2023-07-20T12:33:41;19.30;99.90
58413;DHT22;44209;52.952;6.790;2023-07-20T12:36:08;19.70;99.90
58413;DHT22;44209;52.952;6.790;2023-07-20T12:38:34;20.10;99.90
58413;DHT22;44209;52.952;6.790;2023-07-20T12:41:01;20.40;99.90
58413;DHT22;44209;52.952;6.790;2023-07-20T12:43:27;20.60;99.90
58413;DHT22;44209;52.952;6.790;2023-07-20T12:45:53;20.60;99.90
58413;DHT22;44209;52.952;6.790;2023-07-20T12:48:20;20.40;99.90
58413;DHT22;44209;52.952;6.790;2023-07-20T12:50:46;20.30;99.90
58413;DHT22;44209;52.952;6.790;2023-07-20T12:53:12;20.20;99.90
58413;DHT22;44209;52.952;6.790;2023-07-20T12:55:38;20.10;99.90
58413;DHT22;44209;52.952;6.790;2023-07-20T12:58:05;19.90;99.90
58413;DHT22;44209;52.952;6.790;2023-07-20T13:00:31;19.90;99.90
58413;DHT22;44209;52.952;6.790;2023-07-20T13:02:57;19.90;99.90
58413;DHT22;44209;52.952;6.790;2023-07-20T13:05:23;20.00;99.90
58413;DHT22;44209;52.952;6.790;2023-07-20T13:07:49;20.20;99.90
58413;DHT22;44209;52.952;6.790;2023-07-20T13:10:16;20.10;99.90
58413;DHT22;44209;52.952;6.790;2023-07-20T13:12:41;19.90;99.90
58413;DHT22;44209;52.952;6.790;2023-07-20T13:15:09;19.50;99.90
58413;DHT22;44209;52.952;6.790;2023-07-20T13:17:36;19.20;99.90
58413;DHT22;44209;52.952;6.790;2023-07-20T13:20:03;19.00;99.90
58413;DHT22;44209;52.952;6.790;2023-07-20T13:22:30;19.10;99.90
58413;DHT22;44209;52.952;6.790;2023-07-20T13:24:56;19.20;99.90
58413;DHT22;44209;52.952;6.790;2023-07-20T13:27:22;19.20;99.90
58413;DHT22;44209;52.952;6.790;2023-07-20T13:29:47;19.10;99.90
58413;DHT22;44209;52.952;6.790;2023-07-20T13:32:14;19.00;99.90
58413;DHT22;44209;52.952;6.790;2023-07-20T13:34:46;18.90;99.90
58413;DHT22;44209;52.952;6.790;2023-07-20T13:37:12;18.90;99.90
58413;DHT22;44209;52.952;6.790;2023-07-20T13:39:38;18.80;99.90
58413;DHT22;44209;52.952;6.790;2023-07-20T13:42:05;18.70;99.90
58413;DHT22;44209;52.952;6.790;2023-07-20T13:44:34;18.60;99.90
58413;DHT22;44209;52.952;6.790;2023-07-20T13:47:00;18.60;99.90
58413;DHT22;44209;52.952;6.790;2023-07-20T13:49:27;18.60;99.90
58413;DHT22;44209;52.952;6.790;2023-07-20T13:51:53;18.60;99.90
58413;DHT22;44209;52.952;6.790;2023-07-20T13:54:18;18.60;99.90
58413;DHT22;44209;52.952;6.790;2023-07-20T13:56:44;18.50;99.90
58413;DHT22;44209;52.952;6.790;2023-07-20T13:59:10;18.50;99.90
58413;DHT22;44209;52.952;6.790;2023-07-20T14:01:36;18.50;99.90
58413;DHT22;44209;52.952;6.790;2023-07-20T14:04:02;18.50;99.90
58413;DHT22;44209;52.952;6.790;2023-07-20T14:06:30;18.50;99.90
58413;DHT22;44209;52.952;6.790;2023-07-20T14:08:56;18.60;99.90
58413;DHT22;44209;52.952;6.790;2023-07-20T14:11:23;18.50;99.90
58413;DHT22;44209;52.952;6.790;2023-07-20T14:13:50;18.60;99.90
58413;DHT22;44209;52.952;6.790;2023-07-20T14:16:16;18.60;99.90
58413;DHT22;44209;52.952;6.790;2023-07-20T14:18:42;18.70;99.90
58413;DHT22;44209;52.952;6.790;2023-07-20T14:21:08;18.70;99.90
58413;DHT22;44209;52.952;6.790;2023-07-20T14:23:33;18.70;99.90
58413;DHT22;44209;52.952;6.790;2023-07-20T14:25:59;18.70;99.90
58413;DHT22;44209;52.952;6.790;2023-07-20T14:28:25;18.70;99.90
58413;DHT22;44209;52.952;6.790;2023-07-20T14:30:51;18.70;99.90
58413;DHT22;44209;52.952;6.790;2023-07-20T14:33:16;18.70;99.90
58413;DHT22;44209;52.952;6.790;2023-07-20T14:35:42;18.80;99.90
58413;DHT22;44209;52.952;6.790;2023-07-20T14:38:08;18.70;99.90
58413;DHT22;44209;52.952;6.790;2023-07-20T14:40:33;18.80;99.90
58413;DHT22;44209;52.952;6.790;2023-07-20T14:42:59;18.90;99.90
58413;DHT22;44209;52.952;6.790;2023-07-20T14:45:27;19.30;99.90
58413;DHT22;44209;52.952;6.790;2023-07-20T14:47:53;19.50;99.90
58413;DHT22;44209;52.952;6.790;2023-07-20T14:50:21;19.70;99.90
58413;DHT22;44209;52.952;6.790;2023-07-20T14:52:47;19.70;99.90
58413;DHT22;44209;52.952;6.790;2023-07-20T14:55:13;19.80;99.90
58413;DHT22;44209;52.952;6.790;2023-07-20T14:57:39;20.00;99.90
58413;DHT22;44209;52.952;6.790;2023-07-20T15:00:06;20.20;99.90
58413;DHT22;44209;52.952;6.790;2023-07-20T15:02:34;20.10;99.90
58413;DHT22;44209;52.952;6.790;2023-07-20T15:04:59;20.20;99.90
58413;DHT22;44209;52.952;6.790;2023-07-20T15:07:25;20.20;99.90
58413;DHT22;44209;52.952;6.790;2023-07-20T15:09:51;20.20;99.90
58413;DHT22;44209;52.952;6.790;2023-07-20T15:12:17;20.40;99.90
58413;DHT22;44209;52.952;6.790;2023-07-20T15:14:43;20.50;99.90
58413;DHT22;44209;52.952;6.790;2023-07-20T15:17:09;20.60;99.90
58413;DHT22;44209;52.952;6.790;2023-07-20T15:19:36;20.60;99.90
58413;DHT22;44209;52.952;6.790;2023-07-20T15:22:02;20.70;99.90
58413;DHT22;44209;52.952;6.790;2023-07-20T15:24:32;20.90;99.90
58413;DHT22;44209;52.952;6.790;2023-07-20T15:26:58;20.90;99.90
58413;DHT22;44209;52.952;6.790;2023-07-20T15:29:24;20.90;99.90
58413;DHT22;44209;52.952;6.790;2023-07-20T15:31:50;20.70;99.90
58413;DHT22;44209;52.952;6.790;2023-07-20T15:34:16;20.70;99.90
58413;DHT22;44209;52.952;6.790;2023-07-20T15:36:42;20.60;99.90
58413;DHT22;44209;52.952;6.790;2023-07-20T15:39:08;20.30;99.90
58413;DHT22;44209;52.952;6.790;2023-07-20T15:41:33;20.10;99.90
58413;DHT22;44209;52.952;6.790;2023-07-20T15:44:00;20.00;99.90
58413;DHT22;44209;52.952;6.790;2023-07-20T15:49:07;19.70;99.90